sensor_id;sensor_type;location;lat;lon;timestamp;pressure;altitude;pressure_sealevel;temperature;humidity
19845;BME280;10083;51.038;7.012;2022-09-03T00:00:36;100576.16;;;19.03;99.16
19845;BME280;10083;51.038;7.012;2022-09-03T00:03:08;100582.66;;;19.00;100.00
19845;BME280;10083;51.038;7.012;2022-09-03T00:05:40;100576.22;;;18.87;100.00
19845;BME280;10083;51.038;7.012;2022-09-03T00:08:11;100572.69;;;19.01;100.00
19845;BME280;10083;51.038;7.012;2022-09-03T00:10:46;100576.47;;;19.12;99.88
19845;BME280;10083;51.038;7.012;2022-09-03T00:13:22;100568.25;;;18.84;100.00
19845;BME280;10083;51.038;7.012;2022-09-03T00:15:54;100572.72;;;18.85;100.00
19845;BME280;10083;51.038;7.012;2022-09-03T00:18:27;100569.72;;;18.89;100.00
19845;BME280;10083;51.038;7.012;2022-09-03T00:21:01;100569.69;;;18.75;100.00
19845;BME280;10083;51.038;7.012;2022-09-03T00:23:35;100578.06;;;18.86;100.00
19845;BME280;10083;51.038;7.012;2022-09-03T00:26:16;100572.59;;;18.72;100.00
19845;BME280;10083;51.038;7.012;2022-09-03T00:28:52;100569.78;;;18.74;100.00
19845;BME280;10083;51.038;7.012;2022-09-03T00:31:24;100566.69;;;18.80;100.00
19845;BME280;10083;51.038;7.012;2022-09-03T00:33:57;100568.13;;;18.71;100.00
19845;BME280;10083;51.038;7.012;2022-09-03T00:36:31;100564.25;;;18.75;100.00
19845;BME280;10083;51.038;7.012;2022-09-03T00:38:59;100563.75;;;18.69;100.00
19845;BME280;10083;51.038;7.012;2022-09-03T00:41:32;100569.88;;;18.72;100.00
19845;BME280;10083;51.038;7.012;2022-09-03T00:44:25;100565.31;;;18.73;100.00
19845;BME280;10083;51.038;7.012;2022-09-03T00:47:05;100564.44;;;18.72;100.00
19845;BME280;10083;51.038;7.012;2022-09-03T00:49:45;100562.97;;;18.67;100.00
19845;BME280;10083;51.038;7.012;2022-09-03T00:52:28;100571.72;;;18.72;100.00
19845;BME280;10083;51.038;7.012;2022-09-03T00:55:07;100572.72;;;18.85;100.00
19845;BME280;10083;51.038;7.012;2022-09-03T00:57:46;100561.78;;;18.57;100.00
19845;BME280;10083;51.038;7.012;2022-09-03T01:00:18;100561.31;;;18.64;100.00
19845;BME280;10083;51.038;7.012;2022-09-03T01:02:58;100563.88;;;18.51;100.00
19845;BME280;10083;51.038;7.012;2022-09-03T01:05:48;100551.53;;;18.62;100.00
19845;BME280;10083;51.038;7.012;2022-09-03T01:08:34;100550.81;;;18.58;100.00
19845;BME280;10083;51.038;7.012;2022-09-03T01:11:10;100550.81;;;18.58;100.00
19845;BME280;10083;51.038;7.012;2022-09-03T01:13:49;100548.47;;;18.52;100.00
19845;BME280;10083;51.038;7.012;2022-09-03T01:16:27;100546.31;;;18.43;100.00
19845;BME280;10083;51.038;7.012;2022-09-03T01:19:05;100553.09;;;18.50;100.00
19845;BME280;10083;51.038;7.012;2022-09-03T01:21:57;100543.16;;;18.35;100.00
19845;BME280;10083;51.038;7.012;2022-09-03T01:24:45;100543.63;;;18.27;100.00
19845;BME280;10083;51.038;7.012;2022-09-03T01:27:29;100555.91;;;18.48;100.00
19845;BME280;10083;51.038;7.012;2022-09-03T01:30:03;100560.31;;;18.35;100.00
19845;BME280;10083;51.038;7.012;2022-09-03T01:32:38;100551.38;;;18.33;100.00
19845;BME280;10083;51.038;7.012;2022-09-03T01:35:12;100544.41;;;18.29;100.00
19845;BME280;10083;51.038;7.012;2022-09-03T01:37:53;100551.38;;;18.33;100.00
19845;BME280;10083;51.038;7.012;2022-09-03T01:40:29;100543.78;;;18.40;100.00
19845;BME280;10083;51.038;7.012;2022-09-03T01:43:13;100544.03;;;18.35;100.00
19845;BME280;10083;51.038;7.012;2022-09-03T01:45:52;100545.88;;;18.35;100.00
19845;BME280;10083;51.038;7.012;2022-09-03T01:48:35;100543.31;;;18.32;100.00
19845;BME280;10083;51.038;7.012;2022-09-03T01:51:11;100543.44;;;18.30;100.00
19845;BME280;10083;51.038;7.012;2022-09-03T01:54:01;100551.16;;;18.22;100.00
19845;BME280;10083;51.038;7.012;2022-09-03T01:56:42;100535.31;;;18.30;100.00
19845;BME280;10083;51.038;7.012;2022-09-03T01:59:15;100543.66;;;17.96;100.00
19845;BME280;10083;51.038;7.012;2022-09-03T02:01:52;100540.25;;;17.92;100.00
19845;BME280;10083;51.038;7.012;2022-09-03T02:04:23;100543.81;;;17.93;100.00
19845;BME280;10083;51.038;7.012;2022-09-03T02:06:55;100532.81;;;17.96;100.00
19845;BME280;10083;51.038;7.012;2022-09-03T02:09:25;100535.44;;;17.82;100.00
19845;BME280;10083;51.038;7.012;2022-09-03T02:11:55;100530.53;;;17.88;100.00
19845;BME280;10083;51.038;7.012;2022-09-03T02:14:25;100527.03;;;17.86;100.00
19845;BME280;10083;51.038;7.012;2022-09-03T02:16:57;100516.56;;;17.65;100.00
19845;BME280;10083;51.038;7.012;2022-09-03T02:19:26;100519.63;;;17.74;100.00
19845;BME280;10083;51.038;7.012;2022-09-03T02:21:55;100524.94;;;17.76;100.00
19845;BME280;10083;51.038;7.012;2022-09-03T02:24:24;100521.00;;;17.81;100.00
19845;BME280;10083;51.038;7.012;2022-09-03T02:26:52;100520.66;;;17.87;100.00
19845;BME280;10083;51.038;7.012;2022-09-03T02:29:20;100522.59;;;18.01;100.00
19845;BME280;10083;51.038;7.012;2022-09-03T02:31:47;100521.16;;;17.94;100.00
19845;BME280;10083;51.038;7.012;2022-09-03T02:34:16;100521.09;;;17.80;100.00
19845;BME280;10083;51.038;7.012;2022-09-03T02:36:44;100518.66;;;17.91;100.00
19845;BME280;10083;51.038;7.012;2022-09-03T02:39:12;100520.56;;;17.89;100.00
19845;BME280;10083;51.038;7.012;2022-09-03T02:41:39;100519.59;;;17.90;100.00
19845;BME280;10083;51.038;7.012;2022-09-03T02:44:11;100514.47;;;18.01;100.00
19845;BME280;10083;51.038;7.012;2022-09-03T02:46:43;100520.03;;;17.98;100.00
19845;BME280;10083;51.038;7.012;2022-09-03T02:49:11;100514.88;;;17.93;100.00
19845;BME280;10083;51.038;7.012;2022-09-03T02:51:41;100523.13;;;17.92;100.00
19845;BME280;10083;51.038;7.012;2022-09-03T02:54:10;100513.84;;;17.96;100.00
19845;BME280;10083;51.038;7.012;2022-09-03T02:56:38;100514.47;;;18.01;100.00
19845;BME280;10083;51.038;7.012;2022-09-03T02:59:07;100519.00;;;18.00;100.00
19845;BME280;10083;51.038;7.012;2022-09-03T03:01:35;100508.31;;;18.13;100.00
19845;BME280;10083;51.038;7.012;2022-09-03T03:04:02;100508.84;;;18.04;100.00
19845;BME280;10083;51.038;7.012;2022-09-03T03:06:29;100517.16;;;18.01;100.00
19845;BME280;10083;51.038;7.012;2022-09-03T03:08:59;100511.19;;;18.10;100.00
19845;BME280;10083;51.038;7.012;2022-09-03T03:11:30;100503.16;;;18.08;100.00
19845;BME280;10083;51.038;7.012;2022-09-03T03:13:57;100500.44;;;18.08;100.00
19845;BME280;10083;51.038;7.012;2022-09-03T03:16:24;100501.59;;;18.04;100.00
19845;BME280;10083;51.038;7.012;2022-09-03T03:18:51;100503.50;;;18.18;100.00
19845;BME280;10083;51.038;7.012;2022-09-03T03:21:18;100503.63;;;18.01;100.00
19845;BME280;10083;51.038;7.012;2022-09-03T03:24:06;100501.06;;;17.98;100.00
19845;BME280;10083;51.038;7.012;2022-09-03T03:26:33;100488.47;;;17.97;100.00
19845;BME280;10083;51.038;7.012;2022-09-03T03:29:01;100491.44;;;18.08;100.00
19845;BME280;10083;51.038;7.012;2022-09-03T03:31:31;100486.56;;;17.99;100.00
19845;BME280;10083;51.038;7.012;2022-09-03T03:33:59;100490.66;;;18.06;100.00
19845;BME280;10083;51.038;7.012;2022-09-03T03:36:29;100490.84;;;18.03;100.00
19845;BME280;10083;51.038;7.012;2022-09-03T03:38:58;100490.34;;;17.96;100.00
19845;BME280;10083;51.038;7.012;2022-09-03T03:41:28;100491.63;;;18.05;100.00
19845;BME280;10083;51.038;7.012;2022-09-03T03:43:57;100491.63;;;18.05;100.00
19845;BME280;10083;51.038;7.012;2022-09-03T03:46:29;100486.91;;;17.93;100.00
19845;BME280;10083;51.038;7.012;2022-09-03T03:48:57;100490.16;;;17.99;100.00
19845;BME280;10083;51.038;7.012;2022-09-03T03:51:24;100487.63;;;17.96;100.00
19845;BME280;10083;51.038;7.012;2022-09-03T03:53:54;100491.47;;;17.92;100.00
19845;BME280;10083;51.038;7.012;2022-09-03T03:56:22;100487.09;;;18.05;100.00
19845;BME280;10083;51.038;7.012;2022-09-03T03:58:52;100490.22;;;17.98;100.00
19845;BME280;10083;51.038;7.012;2022-09-03T04:01:21;100487.63;;;17.96;100.00
19845;BME280;10083;51.038;7.012;2022-09-03T04:03:50;100479.56;;;17.95;100.00
19845;BME280;10083;51.038;7.012;2022-09-03T04:06:18;100480.72;;;17.91;100.00
19845;BME280;10083;51.038;7.012;2022-09-03T04:08:47;100483.84;;;17.99;100.00
19845;BME280;10083;51.038;7.012;2022-09-03T04:11:16;100481.47;;;17.93;100.00
19845;BME280;10083;51.038;7.012;2022-09-03T04:13:45;100479.50;;;17.96;100.00
19845;BME280;10083;51.038;7.012;2022-09-03T04:16:16;100476.63;;;17.84;100.00
19845;BME280;10083;51.038;7.012;2022-09-03T04:18:43;100479.38;;;17.98;100.00
19845;BME280;10083;51.038;7.012;2022-09-03T04:21:12;100480.25;;;17.98;100.00
19845;BME280;10083;51.038;7.012;2022-09-03T04:23:42;100479.84;;;17.90;100.00
19845;BME280;10083;51.038;7.012;2022-09-03T04:26:11;100477.94;;;17.92;100.00
19845;BME280;10083;51.038;7.012;2022-09-03T04:28:39;100474.41;;;17.90;100.00
19845;BME280;10083;51.038;7.012;2022-09-03T04:31:08;100483.00;;;17.83;100.00
19845;BME280;10083;51.038;7.012;2022-09-03T04:33:39;100471.28;;;17.82;100.00
19845;BME280;10083;51.038;7.012;2022-09-03T04:36:08;100473.22;;;17.65;100.00
19845;BME280;10083;51.038;7.012;2022-09-03T04:38:37;100473.31;;;17.79;100.00
19845;BME280;10083;51.038;7.012;2022-09-03T04:41:05;100479.41;;;17.82;100.00
19845;BME280;10083;51.038;7.012;2022-09-03T04:43:37;100478.53;;;17.82;100.00
19845;BME280;10083;51.038;7.012;2022-09-03T04:46:07;100484.13;;;17.79;100.00
19845;BME280;10083;51.038;7.012;2022-09-03T04:48:35;100475.59;;;17.71;100.00
19845;BME280;10083;51.038;7.012;2022-09-03T04:51:06;100482.09;;;17.67;100.00
19845;BME280;10083;51.038;7.012;2022-09-03T04:53:34;100480.63;;;17.77;100.00
19845;BME280;10083;51.038;7.012;2022-09-03T04:56:11;100482.13;;;17.82;100.00
19845;BME280;10083;51.038;7.012;2022-09-03T04:58:39;100487.09;;;17.74;100.00
19845;BME280;10083;51.038;7.012;2022-09-03T05:01:08;100483.88;;;17.83;100.00
19845;BME280;10083;51.038;7.012;2022-09-03T05:03:36;100477.41;;;17.86;100.00
19845;BME280;10083;51.038;7.012;2022-09-03T05:06:05;100487.34;;;17.85;100.00
19845;BME280;10083;51.038;7.012;2022-09-03T05:08:34;100485.09;;;17.78;100.00
19845;BME280;10083;51.038;7.012;2022-09-03T05:11:02;100477.31;;;17.87;100.00
19845;BME280;10083;51.038;7.012;2022-09-03T05:13:30;100482.13;;;17.82;100.00
19845;BME280;10083;51.038;7.012;2022-09-03T05:15:59;100471.03;;;17.87;100.00
19845;BME280;10083;51.038;7.012;2022-09-03T05:18:27;100472.59;;;17.91;100.00
19845;BME280;10083;51.038;7.012;2022-09-03T05:20:58;100476.25;;;17.90;100.00
19845;BME280;10083;51.038;7.012;2022-09-03T05:23:28;100469.88;;;17.91;100.00
19845;BME280;10083;51.038;7.012;2022-09-03T05:25:55;100475.91;;;17.96;100.00
19845;BME280;10083;51.038;7.012;2022-09-03T05:28:23;100484.13;;;17.94;100.00
19845;BME280;10083;51.038;7.012;2022-09-03T05:31:03;100473.81;;;18.01;100.00
19845;BME280;10083;51.038;7.012;2022-09-03T05:33:32;100474.84;;;18.14;100.00
19845;BME280;10083;51.038;7.012;2022-09-03T05:36:00;100474.22;;;18.09;100.00
19845;BME280;10083;51.038;7.012;2022-09-03T05:38:29;100475.38;;;18.05;100.00
19845;BME280;10083;51.038;7.012;2022-09-03T05:40:57;100474.91;;;18.13;100.00
19845;BME280;10083;51.038;7.012;2022-09-03T05:43:26;100472.41;;;18.24;100.00
19845;BME280;10083;51.038;7.012;2022-09-03T05:45:56;100471.28;;;18.28;100.00
19845;BME280;10083;51.038;7.012;2022-09-03T05:48:25;100477.41;;;18.31;100.00
19845;BME280;10083;51.038;7.012;2022-09-03T05:50:58;100478.38;;;18.30;100.00
19845;BME280;10083;51.038;7.012;2022-09-03T05:53:26;100482.03;;;18.29;100.00
19845;BME280;10083;51.038;7.012;2022-09-03T05:55:59;100472.06;;;18.30;100.00
19845;BME280;10083;51.038;7.012;2022-09-03T05:58:29;100479.72;;;18.37;100.00
19845;BME280;10083;51.038;7.012;2022-09-03T06:00:56;100473.34;;;18.38;100.00
19845;BME280;10083;51.038;7.012;2022-09-03T06:03:24;100488.47;;;18.42;100.00
19845;BME280;10083;51.038;7.012;2022-09-03T06:05:52;100480.53;;;18.39;100.00
19845;BME280;10083;51.038;7.012;2022-09-03T06:08:20;100479.75;;;18.53;100.00
19845;BME280;10083;51.038;7.012;2022-09-03T06:10:48;100469.72;;;18.53;100.00
19845;BME280;10083;51.038;7.012;2022-09-03T06:13:16;100474.78;;;18.60;100.00
19845;BME280;10083;51.038;7.012;2022-09-03T06:15:47;100477.31;;;18.63;100.00
19845;BME280;10083;51.038;7.012;2022-09-03T06:18:14;100488.19;;;18.77;100.00
19845;BME280;10083;51.038;7.012;2022-09-03T06:20:41;100484.25;;;18.82;100.00
19845;BME280;10083;51.038;7.012;2022-09-03T06:23:08;100485.72;;;18.88;100.00
19845;BME280;10083;51.038;7.012;2022-09-03T06:25:35;100483.84;;;18.88;100.00
19845;BME280;10083;51.038;7.012;2022-09-03T06:28:03;100478.44;;;19.03;100.00
19845;BME280;10083;51.038;7.012;2022-09-03T06:30:35;100485.03;;;19.13;100.00
19845;BME280;10083;51.038;7.012;2022-09-03T06:33:02;100488.63;;;19.13;100.00
19845;BME280;10083;51.038;7.012;2022-09-03T06:35:29;100481.34;;;19.28;100.00
19845;BME280;10083;51.038;7.012;2022-09-03T06:37:56;100487.94;;;19.38;100.00
19845;BME280;10083;51.038;7.012;2022-09-03T06:40:25;100497.56;;;19.44;100.00
19845;BME280;10083;51.038;7.012;2022-09-03T06:42:56;100492.16;;;19.44;100.00
19845;BME280;10083;51.038;7.012;2022-09-03T06:45:26;100489.56;;;19.40;100.00
19845;BME280;10083;51.038;7.012;2022-09-03T06:47:55;100487.66;;;19.57;100.00
19845;BME280;10083;51.038;7.012;2022-09-03T06:50:22;100490.25;;;19.58;100.00
19845;BME280;10083;51.038;7.012;2022-09-03T06:52:51;100489.50;;;19.70;100.00
19845;BME280;10083;51.038;7.012;2022-09-03T06:55:20;100489.94;;;19.77;100.00
19845;BME280;10083;51.038;7.012;2022-09-03T06:57:47;100491.28;;;19.84;100.00
19845;BME280;10083;51.038;7.012;2022-09-03T07:00:16;100486.75;;;19.97;100.00
19845;BME280;10083;51.038;7.012;2022-09-03T07:02:43;100490.53;;;20.09;100.00
19845;BME280;10083;51.038;7.012;2022-09-03T07:05:11;100486.19;;;20.19;100.00
19845;BME280;10083;51.038;7.012;2022-09-03T07:07:40;100490.34;;;20.39;100.00
19845;BME280;10083;51.038;7.012;2022-09-03T07:10:09;100492.72;;;20.30;100.00
19845;BME280;10083;51.038;7.012;2022-09-03T07:12:36;100501.25;;;20.24;100.00
19845;BME280;10083;51.038;7.012;2022-09-03T07:15:07;100498.22;;;20.29;100.00
19845;BME280;10083;51.038;7.012;2022-09-03T07:17:36;100497.00;;;20.47;100.00
19845;BME280;10083;51.038;7.012;2022-09-03T07:20:03;100491.25;;;20.64;100.00
19845;BME280;10083;51.038;7.012;2022-09-03T07:22:32;100502.72;;;20.69;100.00
19845;BME280;10083;51.038;7.012;2022-09-03T07:24:59;100518.09;;;20.44;100.00
19845;BME280;10083;51.038;7.012;2022-09-03T07:27:27;100513.25;;;20.61;100.00
19845;BME280;10083;51.038;7.012;2022-09-03T07:29:54;100519.13;;;20.68;100.00
19845;BME280;10083;51.038;7.012;2022-09-03T07:32:22;100507.06;;;20.85;100.00
19845;BME280;10083;51.038;7.012;2022-09-03T07:34:49;100498.47;;;20.91;100.00
19845;BME280;10083;51.038;7.012;2022-09-03T07:37:17;100503.59;;;20.95;100.00
19845;BME280;10083;51.038;7.012;2022-09-03T07:39:46;100502.34;;;21.13;100.00
19845;BME280;10083;51.038;7.012;2022-09-03T07:42:13;100504.06;;;21.40;100.00
19845;BME280;10083;51.038;7.012;2022-09-03T07:44:40;100511.72;;;21.22;100.00
19845;BME280;10083;51.038;7.012;2022-09-03T07:47:07;100504.72;;;21.31;100.00
19845;BME280;10083;51.038;7.012;2022-09-03T07:49:34;100514.31;;;21.49;100.00
19845;BME280;10083;51.038;7.012;2022-09-03T07:52:02;100527.34;;;21.69;100.00
19845;BME280;10083;51.038;7.012;2022-09-03T07:54:30;100516.69;;;21.41;100.00
19845;BME280;10083;51.038;7.012;2022-09-03T07:56:58;100526.06;;;21.49;100.00
19845;BME280;10083;51.038;7.012;2022-09-03T07:59:26;100521.69;;;21.59;100.00
19845;BME280;10083;51.038;7.012;2022-09-03T08:01:53;100522.16;;;21.28;100.00
19845;BME280;10083;51.038;7.012;2022-09-03T08:04:20;100531.31;;;21.40;100.00
19845;BME280;10083;51.038;7.012;2022-09-03T08:06:47;100527.25;;;21.45;100.00
19845;BME280;10083;51.038;7.012;2022-09-03T08:09:14;100535.44;;;21.58;100.00
19845;BME280;10083;51.038;7.012;2022-09-03T08:11:42;100538.47;;;21.66;100.00
19845;BME280;10083;51.038;7.012;2022-09-03T08:14:12;100542.63;;;21.59;100.00
19845;BME280;10083;51.038;7.012;2022-09-03T08:16:41;100544.69;;;21.68;100.00
19845;BME280;10083;51.038;7.012;2022-09-03T08:19:09;100545.47;;;21.57;100.00
19845;BME280;10083;51.038;7.012;2022-09-03T08:21:40;100547.28;;;21.95;100.00
19845;BME280;10083;51.038;7.012;2022-09-03T08:24:10;100547.16;;;21.96;100.00
19845;BME280;10083;51.038;7.012;2022-09-03T08:26:39;100549.56;;;22.25;100.00
19845;BME280;10083;51.038;7.012;2022-09-03T08:29:08;100549.31;;;21.91;100.00
19845;BME280;10083;51.038;7.012;2022-09-03T08:31:37;100550.38;;;22.62;100.00
19845;BME280;10083;51.038;7.012;2022-09-03T08:34:05;100545.28;;;22.57;100.00
19845;BME280;10083;51.038;7.012;2022-09-03T08:36:34;100555.16;;;23.06;100.00
19845;BME280;10083;51.038;7.012;2022-09-03T08:39:04;100560.88;;;22.55;100.00
19845;BME280;10083;51.038;7.012;2022-09-03T08:41:43;100559.38;;;22.51;100.00
19845;BME280;10083;51.038;7.012;2022-09-03T08:44:21;100562.00;;;22.76;100.00
19845;BME280;10083;51.038;7.012;2022-09-03T08:46:54;100565.25;;;22.58;100.00
19845;BME280;10083;51.038;7.012;2022-09-03T08:49:27;100562.00;;;22.29;100.00
19845;BME280;10083;51.038;7.012;2022-09-03T08:52:00;100573.44;;;22.34;100.00
19845;BME280;10083;51.038;7.012;2022-09-03T08:54:31;100568.78;;;22.47;100.00
19845;BME280;10083;51.038;7.012;2022-09-03T08:57:00;100571.09;;;22.17;100.00
19845;BME280;10083;51.038;7.012;2022-09-03T08:59:29;100577.09;;;22.22;100.00
19845;BME280;10083;51.038;7.012;2022-09-03T09:02:05;100571.25;;;21.90;100.00
19845;BME280;10083;51.038;7.012;2022-09-03T09:04:51;100565.53;;;22.18;100.00
19845;BME280;10083;51.038;7.012;2022-09-03T09:07:26;100570.47;;;22.37;100.00
19845;BME280;10083;51.038;7.012;2022-09-03T09:10:02;100571.38;;;21.76;100.00
19845;BME280;10083;51.038;7.012;2022-09-03T09:12:35;100573.09;;;21.89;100.00
19845;BME280;10083;51.038;7.012;2022-09-03T09:15:08;100562.84;;;22.05;100.00
19845;BME280;10083;51.038;7.012;2022-09-03T09:17:48;100570.72;;;21.97;100.00
19845;BME280;10083;51.038;7.012;2022-09-03T09:20:25;100571.53;;;22.10;100.00
19845;BME280;10083;51.038;7.012;2022-09-03T09:23:00;100568.84;;;22.34;100.00
19845;BME280;10083;51.038;7.012;2022-09-03T09:25:29;100572.63;;;22.21;100.00
19845;BME280;10083;51.038;7.012;2022-09-03T09:27:59;100566.28;;;22.20;100.00
19845;BME280;10083;51.038;7.012;2022-09-03T09:30:29;100555.41;;;22.07;100.00
19845;BME280;10083;51.038;7.012;2022-09-03T09:32:58;100556.34;;;21.70;100.00
19845;BME280;10083;51.038;7.012;2022-09-03T09:35:26;100553.84;;;21.92;100.00
19845;BME280;10083;51.038;7.012;2022-09-03T09:37:54;100550.50;;;22.13;100.00
19845;BME280;10083;51.038;7.012;2022-09-03T09:40:24;100552.63;;;22.20;100.00
19845;BME280;10083;51.038;7.012;2022-09-03T09:43:05;100545.56;;;22.18;100.00
19845;BME280;10083;51.038;7.012;2022-09-03T09:45:33;100541.78;;;22.07;100.00
19845;BME280;10083;51.038;7.012;2022-09-03T09:48:16;100544.31;;;21.85;100.00
19845;BME280;10083;51.038;7.012;2022-09-03T09:50:44;100546.00;;;21.75;100.00
19845;BME280;10083;51.038;7.012;2022-09-03T09:53:12;100529.81;;;21.23;100.00
19845;BME280;10083;51.038;7.012;2022-09-03T09:55:54;100518.78;;;21.25;100.00
19845;BME280;10083;51.038;7.012;2022-09-03T09:58:26;100510.84;;;21.22;100.00
19845;BME280;10083;51.038;7.012;2022-09-03T10:00:56;100485.97;;;20.88;100.00
19845;BME280;10083;51.038;7.012;2022-09-03T10:03:26;100424.31;;;20.74;100.00
19845;BME280;10083;51.038;7.012;2022-09-03T10:06:05;100269.50;;;20.70;100.00
19845;BME280;10083;51.038;7.012;2022-09-03T10:08:47;100205.34;;;20.42;100.00
19845;BME280;10083;51.038;7.012;2022-09-03T10:11:17;99980.94;;;20.83;100.00
19845;BME280;10083;51.038;7.012;2022-09-03T10:13:51;99951.25;;;20.21;100.00
19845;BME280;10083;51.038;7.012;2022-09-03T10:16:23;99814.66;;;20.17;100.00
19845;BME280;10083;51.038;7.012;2022-09-03T10:18:59;99655.00;;;20.30;100.00
19845;BME280;10083;51.038;7.012;2022-09-03T10:21:33;99477.41;;;20.51;100.00
19845;BME280;10083;51.038;7.012;2022-09-03T10:24:14;99260.09;;;20.88;100.00
19845;BME280;10083;51.038;7.012;2022-09-03T10:26:45;99390.81;;;21.28;100.00
19845;BME280;10083;51.038;7.012;2022-09-03T10:29:16;99332.03;;;21.25;100.00
19845;BME280;10083;51.038;7.012;2022-09-03T10:31:59;99511.03;;;21.13;100.00
19845;BME280;10083;51.038;7.012;2022-09-03T10:34:37;99443.75;;;21.35;100.00
19845;BME280;10083;51.038;7.012;2022-09-03T10:37:17;99470.50;;;21.90;100.00
19845;BME280;10083;51.038;7.012;2022-09-03T10:40:00;99523.78;;;21.94;100.00
19845;BME280;10083;51.038;7.012;2022-09-03T10:42:41;99415.03;;;22.30;100.00
19845;BME280;10083;51.038;7.012;2022-09-03T10:45:25;99506.38;;;22.54;100.00
19845;BME280;10083;51.038;7.012;2022-09-03T10:51:10;99662.22;;;22.91;100.00
19845;BME280;10083;51.038;7.012;2022-09-03T10:53:57;99742.03;;;23.05;100.00
19845;BME280;10083;51.038;7.012;2022-09-03T10:56:31;99761.44;;;23.70;100.00
19845;BME280;10083;51.038;7.012;2022-09-03T10:59:14;100069.88;;;23.76;100.00
19845;BME280;10083;51.038;7.012;2022-09-03T11:01:49;100143.38;;;23.91;100.00
19845;BME280;10083;51.038;7.012;2022-09-03T11:04:27;100197.56;;;24.17;100.00
19845;BME280;10083;51.038;7.012;2022-09-03T11:07:04;100238.66;;;23.85;100.00
19845;BME280;10083;51.038;7.012;2022-09-03T11:09:36;100282.56;;;24.46;100.00
19845;BME280;10083;51.038;7.012;2022-09-03T11:12:09;100288.34;;;26.01;100.00
19845;BME280;10083;51.038;7.012;2022-09-03T11:14:41;100411.59;;;27.45;100.00
19845;BME280;10083;51.038;7.012;2022-09-03T11:17:15;100493.03;;;29.86;100.00
19845;BME280;10083;51.038;7.012;2022-09-03T11:19:54;100530.94;;;29.42;100.00
19845;BME280;10083;51.038;7.012;2022-09-03T11:40:13;100555.34;;;28.94;96.76
19845;BME280;10083;51.038;7.012;2022-09-03T11:42:45;100556.66;;;28.54;100.00
19845;BME280;10083;51.038;7.012;2022-09-03T11:45:22;100548.13;;;29.54;97.49
19845;BME280;10083;51.038;7.012;2022-09-03T11:47:50;100551.50;;;28.24;98.71
19845;BME280;10083;51.038;7.012;2022-09-03T11:50:22;100553.00;;;27.81;100.00
19845;BME280;10083;51.038;7.012;2022-09-03T11:52:51;100546.06;;;27.21;100.00
19845;BME280;10083;51.038;7.012;2022-09-03T11:55:27;100537.59;;;27.42;100.00
19845;BME280;10083;51.038;7.012;2022-09-03T11:58:11;100533.75;;;28.09;100.00
19845;BME280;10083;51.038;7.012;2022-09-03T12:00:43;100523.06;;;28.86;100.00
19845;BME280;10083;51.038;7.012;2022-09-03T12:03:14;100526.75;;;27.87;100.00
19845;BME280;10083;51.038;7.012;2022-09-03T12:05:49;100525.44;;;30.60;98.02
19845;BME280;10083;51.038;7.012;2022-09-03T12:09:05;100532.22;;;30.90;90.96
19845;BME280;10083;51.038;7.012;2022-09-03T12:11:46;100534.09;;;30.81;89.74
19845;BME280;10083;51.038;7.012;2022-09-03T12:14:21;100533.81;;;33.34;84.38
19845;BME280;10083;51.038;7.012;2022-09-03T12:19:49;100541.50;;;32.25;84.09
19845;BME280;10083;51.038;7.012;2022-09-03T12:22:19;100540.09;;;32.29;84.17
19845;BME280;10083;51.038;7.012;2022-09-03T12:24:47;100528.56;;;32.17;85.79
19845;BME280;10083;51.038;7.012;2022-09-03T12:27:18;100544.38;;;32.40;79.72
19845;BME280;10083;51.038;7.012;2022-09-03T12:30:12;100543.34;;;32.71;81.55
19845;BME280;10083;51.038;7.012;2022-09-03T12:32:40;100530.38;;;32.64;79.37
19845;BME280;10083;51.038;7.012;2022-09-03T12:35:12;100535.28;;;32.62;78.61
19845;BME280;10083;51.038;7.012;2022-09-03T12:37:42;100531.59;;;33.07;79.98
19845;BME280;10083;51.038;7.012;2022-09-03T12:40:21;100539.28;;;33.05;78.07
19845;BME280;10083;51.038;7.012;2022-09-03T12:42:53;100526.25;;;33.28;77.90
19845;BME280;10083;51.038;7.012;2022-09-03T12:45:25;100529.13;;;33.12;74.95
19845;BME280;10083;51.038;7.012;2022-09-03T12:47:52;100520.91;;;34.44;75.23
19845;BME280;10083;51.038;7.012;2022-09-03T12:50:21;100525.72;;;33.62;71.17
19845;BME280;10083;51.038;7.012;2022-09-03T12:53:00;100528.91;;;35.11;72.51
19845;BME280;10083;51.038;7.012;2022-09-03T12:55:34;100539.72;;;34.78;68.97
19845;BME280;10083;51.038;7.012;2022-09-03T12:58:06;100536.56;;;34.30;72.06
19845;BME280;10083;51.038;7.012;2022-09-03T13:00:42;100538.28;;;33.21;70.95
19845;BME280;10083;51.038;7.012;2022-09-03T13:03:15;100532.38;;;33.38;73.61
19845;BME280;10083;51.038;7.012;2022-09-03T13:05:48;100525.19;;;33.29;71.13
19845;BME280;10083;51.038;7.012;2022-09-03T13:08:21;100517.94;;;33.28;72.18
19845;BME280;10083;51.038;7.012;2022-09-03T13:10:58;100517.72;;;33.15;73.37
19845;BME280;10083;51.038;7.012;2022-09-03T13:13:31;100515.25;;;34.94;72.46
19845;BME280;10083;51.038;7.012;2022-09-03T13:16:32;100509.34;;;33.82;73.28
19845;BME280;10083;51.038;7.012;2022-09-03T13:19:09;100517.53;;;32.40;72.28
19845;BME280;10083;51.038;7.012;2022-09-03T13:22:03;100507.16;;;32.34;75.69
19845;BME280;10083;51.038;7.012;2022-09-03T13:25:08;100515.34;;;32.50;73.65
19845;BME280;10083;51.038;7.012;2022-09-03T13:27:42;100513.88;;;32.70;72.88
19845;BME280;10083;51.038;7.012;2022-09-03T13:30:13;100503.69;;;32.86;74.88
19845;BME280;10083;51.038;7.012;2022-09-03T13:32:51;100505.75;;;31.44;76.05